^^
Station Historical Data
Daily Summary for March 1, 2017 Units:  English    Metric   Both
« Previous Day
Next Day »
Daily Weekly Monthly Yearly Custom
  High: Low: Average:
Temperature: 65.9 °F 55.7 °F 59.1 °F
Dew Point: 60.1 °F 49.8 °F 54.2 °F
Humidity: 95 % 67 % 84 %
Wind Speed: 13.0 mph 0.0 mph 3.9 mph
Wind Gust: 23.0 mph - -
Wind:- - SW
Pressure: 29.96 in 29.45 in -
Precipitation: 0.81 in    
Historical Graphs
 
 
Tabular Data for March 1, 2017
Time Temperature Dew Point Pressure Wind Wind Speed Wind Gust Humidity Rainfall Rate (Hourly) solar Conditions
00:03 56.7 °F 51.9 °F 29.96 in SW 1.9 mph 3.5 mph 84 % 0.00 in 0.0 W/m2 CLR
00:08 56.7 °F 51.9 °F 29.96 in SSW 0.1 mph 1.0 mph 84 % 0.00 in 0.0 W/m2 CLR
00:13 56.9 °F 52.4 °F 29.96 in Calm     85 % 0.00 in 0.0 W/m2 CLR
00:18 56.9 °F 52.4 °F 29.95 in Calm     85 % 0.00 in 0.0 W/m2 CLR
00:23 56.9 °F 52.4 °F 29.95 in Calm     85 % 0.00 in 0.0 W/m2 CLR
00:28 57.0 °F 52.5 °F 29.95 in Calm     85 % 0.00 in 0.0 W/m2 CLR
00:33 57.0 °F 52.5 °F 29.94 in Calm     85 % 0.00 in 0.0 W/m2 CLR
00:38 56.9 °F 52.4 °F 29.94 in Calm     85 % 0.00 in 0.0 W/m2 CLR
00:43 56.6 °F 52.5 °F 29.94 in WSW 0.3 mph 1.2 mph 86 % 0.00 in 0.0 W/m2 CLR
00:48 56.4 °F 52.3 °F 29.93 in WSW 0.2 mph   86 % 0.00 in 0.0 W/m2 CLR
00:53 56.3 °F 52.5 °F 29.93 in WSW 0.6 mph 1.2 mph 87 % 0.00 in 0.0 W/m2 CLR
00:59 56.2 °F 52.4 °F 29.92 in Calm     87 % 0.00 in 0.0 W/m2 CLR
01:04 56.0 °F 52.5 °F 29.91 in South 1.1 mph 4.0 mph 88 % 0.00 in 0.0 W/m2 CLR
01:09 55.8 °F 52.3 °F 29.90 in South 0.2 mph 1.2 mph 88 % 0.00 in 0.0 W/m2 CLR
01:14 55.8 °F 52.3 °F 29.90 in South 2.8 mph 4.6 mph 88 % 0.01 in 0.0 W/m2 RA
01:19 55.8 °F 52.6 °F 29.89 in South 2.1 mph 5.0 mph 89 % 0.01 in 0.0 W/m2 RA
01:24 56.1 °F 53.2 °F 29.89 in SSW 6.3 mph 9.2 mph 90 % 0.01 in 0.0 W/m2
01:29 56.6 °F 53.7 °F 29.88 in SW 10.2 mph 13.8 mph 90 % 0.01 in 0.0 W/m2
01:34 56.9 °F 53.7 °F 29.88 in SSW 7.5 mph 10.4 mph 89 % 0.01 in 0.0 W/m2
01:39 57.2 °F 54.0 °F 29.88 in SSW 6.5 mph 10.4 mph 89 % 0.01 in 0.0 W/m2
01:44 57.3 °F 54.1 °F 29.89 in WSW 5.2 mph 8.1 mph 89 % 0.01 in 0.0 W/m2
01:49 57.3 °F 54.1 °F 29.90 in WSW 3.8 mph 8.1 mph 89 % 0.01 in 0.0 W/m2
01:54 57.3 °F 54.1 °F 29.90 in West 3.2 mph 6.9 mph 89 % 0.01 in 0.0 W/m2
01:59 57.4 °F 54.2 °F 29.91 in SW 9.4 mph 12.7 mph 89 % 0.01 in 0.0 W/m2
02:04 57.4 °F 54.2 °F 29.91 in West 6.7 mph 12.0 mph 89 % 0.01 in 0.0 W/m2
02:09 57.4 °F 53.9 °F 29.90 in West 2.9 mph 8.1 mph 88 % 0.01 in 0.0 W/m2
02:14 57.3 °F 53.8 °F 29.90 in West 3.9 mph 10.4 mph 88 % 0.00 in 0.0 W/m2 CLR
02:19 57.1 °F 53.9 °F 29.90 in WSW 5.3 mph 10.4 mph 89 % 0.00 in 0.0 W/m2 CLR
02:24 57.0 °F 53.8 °F 29.90 in WSW 4.9 mph 5.8 mph 89 % 0.00 in 0.0 W/m2 CLR
02:29 56.9 °F 53.7 °F 29.89 in WSW 3.3 mph 5.8 mph 89 % 0.00 in 0.0 W/m2 CLR
02:34 56.8 °F 53.6 °F 29.89 in WSW 4.7 mph 8.1 mph 89 % 0.00 in 0.0 W/m2 CLR
02:39 56.7 °F 53.5 °F 29.89 in SW 3.8 mph 5.8 mph 89 % 0.00 in 0.0 W/m2 CLR
02:44 56.6 °F 53.4 °F 29.89 in WSW 3.8 mph 4.6 mph 89 % 0.00 in 0.0 W/m2 CLR
02:49 56.5 °F 53.3 °F 29.88 in WSW 1.4 mph 3.5 mph 89 % 0.00 in 0.0 W/m2 CLR
02:54 56.4 °F 53.2 °F 29.88 in SSW 3.1 mph 5.8 mph 89 % 0.00 in 0.0 W/m2 CLR
02:59 56.4 °F 53.2 °F 29.88 in WSW 0.1 mph   89 % 0.00 in 0.0 W/m2 CLR
03:04 56.3 °F 53.4 °F 29.87 in WSW 2.1 mph 5.0 mph 90 % 0.00 in 0.0 W/m2 CLR
03:09 56.3 °F 53.4 °F 29.87 in WSW 2.6 mph 4.0 mph 90 % 0.00 in 0.0 W/m2 CLR
03:14 56.3 °F 53.4 °F 29.87 in Calm   3.5 mph 90 % 0.00 in 0.0 W/m2 CLR
03:19 56.2 °F 53.3 °F 29.86 in Calm   1.2 mph 90 % 0.00 in 0.0 W/m2 CLR
03:24 56.2 °F 53.3 °F 29.87 in SW 0.5 mph 2.3 mph 90 % 0.00 in 0.0 W/m2 CLR
03:29 56.2 °F 53.3 °F 29.86 in Calm     90 % 0.00 in 0.0 W/m2 CLR
03:34 56.1 °F 53.2 °F 29.86 in Calm   1.2 mph 90 % 0.00 in 0.0 W/m2 CLR
03:39 56.1 °F 53.2 °F 29.86 in Calm     90 % 0.00 in 0.0 W/m2 CLR
03:44 56.2 °F 53.3 °F 29.86 in SW 2.1 mph 3.0 mph 90 % 0.00 in 0.0 W/m2 CLR
03:49 56.3 °F 53.4 °F 29.85 in Calm   2.3 mph 90 % 0.00 in 0.0 W/m2 CLR
03:54 56.5 °F 53.6 °F 29.85 in SSW 0.3 mph 1.2 mph 90 % 0.00 in 0.0 W/m2 CLR
03:59 56.6 °F 53.7 °F 29.85 in SSW 0.7 mph 3.5 mph 90 % 0.00 in 0.0 W/m2 CLR
04:04 56.7 °F 53.8 °F 29.85 in SW 3.2 mph 8.1 mph 90 % 0.00 in 0.0 W/m2 CLR
04:09 56.8 °F 53.6 °F 29.85 in SSW 2.8 mph 3.5 mph 89 % 0.00 in 0.0 W/m2 CLR
04:15 56.8 °F 53.6 °F 29.85 in SSW 2.7 mph 6.9 mph 89 % 0.00 in 0.0 W/m2 CLR
04:20 56.8 °F 53.6 °F 29.84 in SSW 5.0 mph 7.0 mph 89 % 0.00 in 0.0 W/m2 CLR
04:25 56.8 °F 53.6 °F 29.83 in SSW 3.0 mph 4.6 mph 89 % 0.00 in 0.0 W/m2 CLR
04:30 56.8 °F 53.6 °F 29.82 in SSW 2.7 mph 5.0 mph 89 % 0.00 in 0.0 W/m2 CLR
04:35 56.8 °F 53.6 °F 29.82 in SSW 3.0 mph 5.0 mph 89 % 0.00 in 0.0 W/m2 CLR
04:40 56.7 °F 53.5 °F 29.83 in SSW 1.0 mph 5.0 mph 89 % 0.00 in 0.0 W/m2 CLR
04:45 56.7 °F 53.5 °F 29.82 in SSW 0.8 mph 3.5 mph 89 % 0.00 in 0.0 W/m2 CLR
04:50 56.7 °F 53.5 °F 29.82 in Calm   4.0 mph 89 % 0.00 in 0.0 W/m2 CLR
04:55 56.7 °F 53.5 °F 29.82 in Calm   3.0 mph 89 % 0.00 in 0.0 W/m2 CLR
05:00 56.6 °F 53.4 °F 29.83 in SSW 0.4 mph 2.3 mph 89 % 0.00 in 0.0 W/m2 CLR
05:05 56.6 °F 53.4 °F 29.82 in SSW 3.9 mph 5.8 mph 89 % 0.00 in 0.0 W/m2 CLR
05:10 56.6 °F 53.4 °F 29.81 in SSW 1.1 mph 4.6 mph 89 % 0.00 in 0.0 W/m2 CLR
05:15 56.6 °F 53.4 °F 29.81 in SW 3.0 mph 4.6 mph 89 % 0.00 in 0.0 W/m2 CLR
05:20 56.7 °F 53.5 °F 29.81 in SSW 2.9 mph 5.0 mph 89 % 0.00 in 0.0 W/m2 CLR
05:25 56.6 °F 53.4 °F 29.81 in SW 2.5 mph 4.6 mph 89 % 0.00 in 0.0 W/m2 CLR
05:30 56.6 °F 53.4 °F 29.80 in SSW 2.5 mph 4.6 mph 89 % 0.00 in 0.0 W/m2 CLR
05:35 56.7 °F 53.5 °F 29.80 in SSW 1.8 mph 3.5 mph 89 % 0.00 in 0.0 W/m2 CLR
05:40 56.7 °F 53.5 °F 29.80 in SSW 2.1 mph 3.5 mph 89 % 0.00 in 0.0 W/m2 CLR
05:45 56.6 °F 53.4 °F 29.80 in SW 3.9 mph 5.8 mph 89 % 0.00 in 0.0 W/m2 CLR
05:50 56.6 °F 53.4 °F 29.80 in SW 2.7 mph 4.6 mph 89 % 0.00 in 0.0 W/m2 CLR
05:55 56.6 °F 53.4 °F 29.80 in SSW 3.3 mph 4.6 mph 89 % 0.00 in 0.0 W/m2 CLR
06:00 56.6 °F 53.4 °F 29.80 in SSW 1.2 mph 4.6 mph 89 % 0.00 in 0.0 W/m2 CLR
06:05 56.6 °F 53.4 °F 29.78 in South 1.3 mph 3.5 mph 89 % 0.00 in 0.0 W/m2 CLR
06:10 56.5 °F 53.3 °F 29.79 in SSW 0.6 mph 3.0 mph 89 % 0.00 in 0.0 W/m2 CLR
06:15 56.5 °F 53.3 °F 29.78 in SSW 2.3 mph 5.8 mph 89 % 0.00 in 0.0 W/m2 CLR
06:20 56.5 °F 53.3 °F 29.78 in SW 4.5 mph 7.0 mph 89 % 0.00 in 0.0 W/m2 CLR
06:25 56.5 °F 53.3 °F 29.78 in SW 3.0 mph 3.5 mph 89 % 0.00 in 0.0 W/m2 CLR
06:30 56.6 °F 53.4 °F 29.78 in SSW 4.1 mph 6.9 mph 89 % 0.00 in 0.0 W/m2 CLR
06:35 56.6 °F 53.4 °F 29.78 in South 3.6 mph 5.8 mph 89 % 0.00 in 0.0 W/m2 CLR
06:40 56.6 °F 53.4 °F 29.78 in SSW 4.1 mph 7.0 mph 89 % 0.00 in 0.0 W/m2 CLR
06:45 56.7 °F 53.5 °F 29.77 in SSW 5.5 mph 7.0 mph 89 % 0.00 in 0.0 W/m2 CLR
06:50 56.7 °F 53.5 °F 29.77 in South 5.2 mph 6.9 mph 89 % 0.00 in 5.0 W/m2 CLR
06:55 56.7 °F 53.5 °F 29.76 in SW 5.3 mph 10.4 mph 89 % 0.00 in 7.0 W/m2 CLR
07:00 56.8 °F 53.6 °F 29.76 in SW 1.7 mph 5.8 mph 89 % 0.00 in 11.0 W/m2 CLR
07:05 56.7 °F 53.5 °F 29.78 in SSW 3.7 mph 6.9 mph 89 % 0.00 in 11.0 W/m2 CLR
07:10 56.8 °F 53.6 °F 29.77 in SSW 2.6 mph 4.6 mph 89 % 0.00 in 14.0 W/m2 CLR
07:15 56.8 °F 53.6 °F 29.77 in SW 5.8 mph 10.4 mph 89 % 0.00 in 11.0 W/m2 CLR
07:20 56.7 °F 53.5 °F 29.77 in SSW 5.5 mph 8.1 mph 89 % 0.00 in 9.0 W/m2 OVC
07:25 56.7 °F 53.5 °F 29.77 in SSW 0.9 mph 3.5 mph 89 % 0.00 in 16.0 W/m2 OVC
07:30 56.8 °F 53.6 °F 29.77 in SSW 1.0 mph 9.2 mph 89 % 0.00 in 12.0 W/m2 OVC
07:35 56.8 °F 53.6 °F 29.77 in Calm   3.5 mph 89 % 0.00 in 12.0 W/m2 OVC
07:40 56.8 °F 53.6 °F 29.77 in South 0.8 mph 2.3 mph 89 % 0.00 in 11.0 W/m2 OVC
07:45 56.8 °F 53.6 °F 29.76 in SSW 1.5 mph 6.0 mph 89 % 0.00 in 35.0 W/m2 OVC
07:50 56.9 °F 53.7 °F 29.75 in South 4.2 mph 4.6 mph 89 % 0.00 in 54.0 W/m2 BKN
07:55 56.9 °F 53.7 °F 29.74 in South 1.1 mph 3.0 mph 89 % 0.00 in 40.0 W/m2 BKN
08:00 56.9 °F 53.7 °F 29.72 in SSW 0.7 mph 4.0 mph 89 % 0.00 in 42.0 W/m2 OVC
08:05 57.0 °F 53.8 °F 29.72 in SSW 0.9 mph 2.3 mph 89 % 0.00 in 47.0 W/m2 OVC
08:10 57.1 °F 53.9 °F 29.72 in Calm     89 % 0.00 in 62.0 W/m2 BKN
08:15 57.1 °F 53.9 °F 29.73 in Calm     89 % 0.00 in 67.0 W/m2 BKN
08:20 57.1 °F 54.2 °F 29.74 in Calm     90 % 0.00 in 19.0 W/m2 OVC
08:25 57.1 °F 53.9 °F 29.76 in SW 3.2 mph 4.6 mph 89 % 0.00 in 0.0 W/m2 OVC
08:30 57.0 °F 53.8 °F 29.73 in Calm   1.2 mph 89 % 0.05 in 7.0 W/m2 RA
08:35 56.8 °F 53.9 °F 29.73 in Calm     90 % 0.06 in 5.0 W/m2 RA
08:40 56.7 °F 53.8 °F 29.74 in SW 0.3 mph 1.2 mph 90 % 0.07 in 5.0 W/m2 RA
08:45 56.5 °F 53.6 °F 29.72 in Calm     90 % 0.18 in 28.0 W/m2 RA
08:50 56.3 °F 53.7 °F 29.69 in SW 0.1 mph 1.2 mph 91 % 0.19 in 47.0 W/m2 RA
08:55 56.4 °F 54.1 °F 29.69 in Calm     92 % 0.19 in 37.0 W/m2 RA
09:00 56.4 °F 54.1 °F 29.71 in SW 0.7 mph 2.0 mph 92 % 0.19 in 19.0 W/m2 OVC
09:06 56.3 °F 54.0 °F 29.72 in Calm   2.3 mph 92 % 0.19 in 19.0 W/m2 OVC
09:11 56.2 °F 53.9 °F 29.73 in Calm     92 % 0.19 in 32.0 W/m2 OVC
09:17 56.2 °F 53.9 °F 29.73 in Calm     92 % 0.21 in 7.0 W/m2 RA
09:22 56.1 °F 54.1 °F 29.71 in Calm     93 % 0.23 in 32.0 W/m2 RA
09:27 56.0 °F 54.0 °F 29.72 in Calm     93 % 0.23 in 16.0 W/m2 RA
09:32 56.0 °F 54.0 °F 29.72 in Calm     93 % 0.19 in 19.0 W/m2 RA
09:37 56.1 °F 54.1 °F 29.71 in West 0.1 mph   93 % 0.19 in 35.0 W/m2 RA
09:42 56.0 °F 54.0 °F 29.72 in Calm     93 % 0.19 in 16.0 W/m2 RA
09:47 56.0 °F 54.0 °F 29.73 in West 0.5 mph   93 % 0.12 in 14.0 W/m2 RA
09:52 56.0 °F 54.0 °F 29.72 in Calm     93 % 0.14 in 26.0 W/m2 RA
09:57 55.8 °F 54.1 °F 29.72 in SW 0.8 mph   94 % 0.20 in 26.0 W/m2 RA
09:59 55.8 °F 54.1 °F 29.71 in Calm     94 % 0.24 in 25.0 W/m2 RA
10:04 55.7 °F 54.0 °F 29.71 in Calm   1.2 mph 94 % 0.28 in 35.0 W/m2 RA
10:09 55.8 °F 54.1 °F 29.71 in SW 0.2 mph 1.2 mph 94 % 0.29 in 33.0 W/m2 RA
10:14 55.8 °F 54.1 °F 29.70 in Calm   1.2 mph 94 % 0.29 in 60.0 W/m2 RA
10:19 55.8 °F 54.1 °F 29.70 in Calm     94 % 0.29 in 25.0 W/m2 RA
10:24 55.8 °F 54.1 °F 29.71 in SW 0.2 mph 2.0 mph 94 % 0.29 in 14.0 W/m2 RA
10:29 55.8 °F 54.1 °F 29.72 in SW 1.4 mph 3.5 mph 94 % 0.29 in 9.0 W/m2 RA
10:34 55.7 °F 54.0 °F 29.69 in Calm     94 % 0.35 in 21.0 W/m2 RA
10:39 55.7 °F 54.0 °F 29.69 in South 1.3 mph 3.5 mph 94 % 0.37 in 42.0 W/m2 RA
10:44 55.7 °F 54.0 °F 29.69 in Calm     94 % 0.38 in 47.0 W/m2 RA
10:49 55.7 °F 54.3 °F 29.68 in SSE 0.7 mph 2.3 mph 95 % 0.35 in 44.0 W/m2 RA
10:54 55.9 °F 54.5 °F 29.67 in SSE 1.1 mph 3.5 mph 95 % 0.32 in 95.0 W/m2 RA
10:59 56.2 °F 54.8 °F 29.67 in South 0.1 mph 1.2 mph 95 % 0.26 in 114.0 W/m2 RA
11:04 56.4 °F 55.0 °F 29.66 in South 1.6 mph 3.5 mph 95 % 0.22 in 69.0 W/m2 RA
11:09 56.5 °F 55.1 °F 29.65 in Calm     95 % 0.22 in 118.0 W/m2 RA
11:14 56.6 °F 55.2 °F 29.64 in South 0.3 mph 2.3 mph 95 % 0.21 in 156.0 W/m2 RA
11:19 56.8 °F 55.4 °F 29.63 in SSE 1.5 mph 4.0 mph 95 % 0.19 in 118.0 W/m2 OVC
11:24 56.9 °F 55.5 °F 29.62 in South 0.4 mph 3.5 mph 95 % 0.18 in 130.0 W/m2 OVC
11:29 57.1 °F 55.7 °F 29.61 in South 0.5 mph 4.6 mph 95 % 0.17 in 195.0 W/m2 BKN
11:34 57.3 °F 55.9 °F 29.62 in South 4.3 mph 8.1 mph 95 % 0.10 in 304.0 W/m2 BKN
11:39 57.8 °F 56.4 °F 29.62 in SSW 8.5 mph 10.4 mph 95 % 0.07 in 258.0 W/m2 BKN
11:44 58.0 °F 56.6 °F 29.62 in SSW 7.0 mph 11.5 mph 95 % 0.05 in 206.0 W/m2 BKN
11:49 58.3 °F 56.6 °F 29.61 in SSW 5.8 mph 9.2 mph 94 % 0.04 in 325.0 W/m2 BKN
11:54 58.7 °F 57.0 °F 29.60 in SSW 5.1 mph 8.1 mph 94 % 0.02 in 281.0 W/m2 BKN
11:59 59.1 °F 57.4 °F 29.60 in SSE 7.0 mph 11.0 mph 94 % 0.01 in 179.0 W/m2 BKN
12:04 59.3 °F 57.3 °F 29.60 in SW 9.7 mph 11.5 mph 93 % 0.01 in 144.0 W/m2 BKN
12:09 59.6 °F 57.6 °F 29.59 in SSW 7.2 mph 10.0 mph 93 % 0.00 in 309.0 W/m2 SCT
12:14 59.8 °F 57.5 °F 29.60 in SW 8.0 mph 11.5 mph 92 % 0.00 in 193.0 W/m2 BKN
12:19 60.0 °F 57.7 °F 29.59 in South 8.9 mph 11.5 mph 92 % 0.00 in 315.0 W/m2 BKN
12:24 60.4 °F 58.1 °F 29.59 in WSW 6.7 mph 11.5 mph 92 % 0.00 in 334.0 W/m2 SCT
12:29 60.8 °F 58.2 °F 29.58 in SW 9.3 mph 11.5 mph 91 % 0.00 in 316.0 W/m2 BKN
12:34 61.2 °F 58.6 °F 29.58 in SSW 7.0 mph 10.4 mph 91 % 0.00 in 264.0 W/m2 FEW
12:39 61.6 °F 58.6 °F 29.58 in South 9.7 mph 18.4 mph 90 % 0.00 in 309.0 W/m2 SCT
12:44 62.0 °F 58.7 °F 29.57 in South 9.6 mph 13.8 mph 89 % 0.00 in 403.0 W/m2 SCT
12:49 62.5 °F 58.9 °F 29.57 in SSW 11.1 mph 14.0 mph 88 % 0.00 in 334.0 W/m2 SCT
12:54 62.7 °F 58.8 °F 29.57 in SW 10.0 mph 13.8 mph 87 % 0.00 in 278.0 W/m2 BKN
12:59 62.7 °F 58.8 °F 29.57 in SSW 9.4 mph 17.3 mph 87 % 0.00 in 232.0 W/m2 BKN
13:04 62.5 °F 58.6 °F 29.57 in SW 9.0 mph 13.8 mph 87 % 0.00 in 220.0 W/m2 BKN
13:09 62.7 °F 58.5 °F 29.56 in SSW 8.2 mph 11.5 mph 86 % 0.00 in 218.0 W/m2 BKN
13:14 62.8 °F 58.5 °F 29.55 in SSW 5.4 mph 10.4 mph 86 % 0.00 in 244.0 W/m2 BKN
13:19 63.1 °F 58.8 °F 29.56 in SW 4.0 mph 5.0 mph 86 % 0.00 in 299.0 W/m2 BKN
13:24 63.4 °F 59.1 °F 29.55 in South 5.8 mph 13.8 mph 86 % 0.00 in 336.0 W/m2 SCT
13:29 63.8 °F 59.2 °F 29.54 in SSW 5.9 mph 9.2 mph 85 % 0.00 in 258.0 W/m2 SCT
13:34 63.9 °F 59.3 °F 29.54 in West 4.3 mph 7.0 mph 85 % 0.00 in 165.0 W/m2 BKN
13:39 63.9 °F 59.0 °F 29.54 in South 6.5 mph 11.5 mph 84 % 0.00 in 209.0 W/m2 BKN
13:44 63.9 °F 59.0 °F 29.54 in SSW 6.1 mph 11.5 mph 84 % 0.00 in 162.0 W/m2 BKN
13:45 63.9 °F 59.0 °F 29.54 in SW 5.4 mph 6.9 mph 84 % 0.00 in 148.0 W/m2 BKN
13:50 64.1 °F 59.2 °F 29.54 in SSW 8.2 mph 11.5 mph 84 % 0.00 in 188.0 W/m2 BKN
13:55 64.2 °F 59.3 °F 29.54 in SSW 4.8 mph 8.1 mph 84 % 0.00 in 137.0 W/m2 OVC
14:00 64.4 °F 59.5 °F 29.54 in SSW 6.5 mph 10.4 mph 84 % 0.00 in 246.0 W/m2 BKN
14:05 64.7 °F 59.4 °F 29.53 in SSW 6.2 mph 11.5 mph 83 % 0.00 in 267.0 W/m2 BKN
14:10 65.0 °F 59.7 °F 29.53 in SSW 9.0 mph 12.7 mph 83 % 0.00 in 149.0 W/m2 BKN
14:15 65.2 °F 59.6 °F 29.53 in SW 7.1 mph 12.7 mph 82 % 0.00 in 229.0 W/m2 BKN
14:20 65.4 °F 59.8 °F 29.53 in SW 4.3 mph 9.2 mph 82 % 0.00 in 246.0 W/m2 BKN
14:25 65.7 °F 59.7 °F 29.53 in SSW 8.4 mph 10.4 mph 81 % 0.00 in 192.0 W/m2 SCT
14:30 65.9 °F 59.9 °F 29.53 in SW 4.3 mph 12.0 mph 81 % 0.00 in 116.0 W/m2 OVC
14:35 65.7 °F 59.7 °F 29.53 in SW 6.8 mph 11.5 mph 81 % 0.00 in 39.0 W/m2 OVC
14:40 65.4 °F 60.1 °F 29.54 in SW 5.0 mph 6.9 mph 83 % 0.01 in 16.0 W/m2 RA
14:45 64.8 °F 59.9 °F 29.54 in SSW 5.1 mph 6.9 mph 84 % 0.03 in 23.0 W/m2 RA
14:50 64.1 °F 59.8 °F 29.53 in SSW 8.4 mph 11.5 mph 86 % 0.09 in 127.0 W/m2 RA
14:55 63.7 °F 59.8 °F 29.52 in WSW 5.8 mph 10.4 mph 87 % 0.09 in 23.0 W/m2 RA
15:00 63.4 °F 59.8 °F 29.53 in West 5.2 mph 9.2 mph 88 % 0.09 in 120.0 W/m2 OVC
15:05 63.1 °F 59.8 °F 29.52 in WSW 6.2 mph 11.5 mph 89 % 0.09 in 165.0 W/m2 BKN
15:10 62.9 °F 59.9 °F 29.50 in WSW 3.3 mph 8.1 mph 90 % 0.09 in 251.0 W/m2 SCT
15:15 62.9 °F 59.9 °F 29.50 in SW 4.2 mph 8.0 mph 90 % 0.09 in 149.0 W/m2 BKN
15:20 62.6 °F 59.6 °F 29.50 in SSW 4.1 mph 6.9 mph 90 % 0.09 in 109.0 W/m2 BKN
15:25 61.9 °F 58.6 °F 29.49 in WSW 8.5 mph 11.5 mph 89 % 0.09 in 174.0 W/m2 BKN
15:30 61.5 °F 58.5 °F 29.47 in SW 2.8 mph 3.5 mph 90 % 0.09 in 120.0 W/m2 BKN
15:35 61.5 °F 58.5 °F 29.47 in WSW 2.5 mph 4.6 mph 90 % 0.09 in 149.0 W/m2 BKN
15:40 61.5 °F 58.5 °F 29.48 in West 4.3 mph 5.8 mph 90 % 0.08 in 132.0 W/m2 BKN
15:45 61.6 °F 58.6 °F 29.48 in WSW 7.3 mph 9.2 mph 90 % 0.06 in 448.0 W/m2 CLR
15:50 62.3 °F 59.3 °F 29.49 in SW 5.2 mph 6.9 mph 90 % 0.00 in 162.0 W/m2 FEW
15:55 62.5 °F 59.2 °F 29.50 in WSW 2.8 mph 4.6 mph 89 % 0.00 in 100.0 W/m2 BKN
16:00 62.5 °F 59.2 °F 29.49 in WSW 1.0 mph 4.0 mph 89 % 0.00 in 81.0 W/m2 BKN
16:05 62.5 °F 59.2 °F 29.49 in WSW 4.3 mph 10.4 mph 89 % 0.00 in 72.0 W/m2 BKN
16:10 62.5 °F 59.2 °F 29.49 in SW 3.9 mph 9.0 mph 89 % 0.00 in 76.0 W/m2 BKN
16:15 62.5 °F 59.2 °F 29.49 in WSW 9.4 mph 13.8 mph 89 % 0.00 in 72.0 W/m2 BKN
16:20 62.6 °F 59.0 °F 29.49 in SSW 8.1 mph 11.5 mph 88 % 0.00 in 65.0 W/m2 BKN
16:21 62.6 °F 59.0 °F 29.49 in WSW 5.8 mph 11.5 mph 88 % 0.00 in 63.0 W/m2 BKN
16:26 62.5 °F 58.6 °F 29.49 in SW 5.8 mph 10.4 mph 87 % 0.00 in 65.0 W/m2 BKN
16:31 62.5 °F 58.3 °F 29.49 in SW 4.9 mph 12.7 mph 86 % 0.00 in 47.0 W/m2 BKN
16:36 62.5 °F 57.9 °F 29.49 in WSW 6.0 mph 12.7 mph 85 % 0.00 in 42.0 W/m2 OVC
16:41 62.4 °F 57.5 °F 29.48 in SW 5.3 mph 5.8 mph 84 % 0.00 in 51.0 W/m2 BKN
16:46 62.3 °F 57.1 °F 29.49 in SSW 8.1 mph 13.8 mph 83 % 0.00 in 53.0 W/m2 BKN
16:51 62.3 °F 56.7 °F 29.48 in West 9.5 mph 19.6 mph 82 % 0.00 in 51.0 W/m2 BKN
16:56 62.4 °F 56.1 °F 29.49 in SSW 7.3 mph 11.5 mph 80 % 0.00 in 47.0 W/m2 BKN
17:01 62.5 °F 55.5 °F 29.48 in WSW 8.1 mph 13.8 mph 78 % 0.00 in 37.0 W/m2 BKN
17:06 62.5 °F 55.2 °F 29.49 in SSW 8.3 mph 16.1 mph 77 % 0.00 in 32.0 W/m2 BKN
17:11 62.5 °F 54.8 °F 29.49 in SW 5.4 mph 18.4 mph 76 % 0.00 in 26.0 W/m2 BKN
17:16 62.5 °F 54.5 °F 29.49 in SW 9.2 mph 12.7 mph 75 % 0.00 in 23.0 W/m2 BKN
17:21 62.5 °F 54.1 °F 29.49 in SW 6.1 mph 13.8 mph 74 % 0.00 in 19.0 W/m2 BKN
17:26 62.4 °F 54.0 °F 29.48 in SW 8.2 mph 12.7 mph 74 % 0.00 in 14.0 W/m2 BKN
17:31 62.4 °F 54.0 °F 29.49 in SSW 8.8 mph 12.7 mph 74 % 0.00 in 11.0 W/m2 BKN
17:36 62.4 °F 53.6 °F 29.48 in WSW 9.7 mph 13.0 mph 73 % 0.00 in 7.0 W/m2 OVC
17:41 62.4 °F 53.3 °F 29.48 in WSW 7.0 mph 9.2 mph 72 % 0.00 in 0.0 W/m2 OVC
17:46 62.4 °F 53.3 °F 29.48 in SW 6.4 mph 9.2 mph 72 % 0.00 in 0.0 W/m2 OVC
17:52 62.4 °F 52.9 °F 29.48 in WSW 6.7 mph 11.5 mph 71 % 0.00 in 0.0 W/m2 CLR
17:57 62.6 °F 52.7 °F 29.48 in SW 8.5 mph 11.5 mph 70 % 0.00 in 0.0 W/m2 CLR
18:02 62.7 °F 52.8 °F 29.48 in SW 8.4 mph 11.5 mph 70 % 0.00 in 0.0 W/m2 CLR
18:07 62.6 °F 52.7 °F 29.49 in WSW 5.1 mph 8.1 mph 70 % 0.00 in 0.0 W/m2 CLR
18:12 62.6 °F 52.3 °F 29.48 in SSW 7.4 mph 11.5 mph 69 % 0.00 in 0.0 W/m2 CLR
18:17 62.7 °F 52.4 °F 29.48 in WSW 7.5 mph 12.7 mph 69 % 0.00 in 0.0 W/m2 CLR
18:22 62.6 °F 51.9 °F 29.48 in SSW 5.4 mph 6.9 mph 68 % 0.00 in 0.0 W/m2 CLR
18:23 62.6 °F 51.9 °F 29.48 in SW 3.1 mph 6.9 mph 68 % 0.00 in 0.0 W/m2 CLR
18:28 62.4 °F 51.7 °F 29.48 in WSW 5.5 mph 8.1 mph 68 % 0.00 in 0.0 W/m2 CLR
18:33 62.4 °F 51.7 °F 29.48 in SW 4.0 mph 10.4 mph 68 % 0.00 in 0.0 W/m2 CLR
18:38 62.4 °F 51.7 °F 29.48 in SW 5.2 mph 8.1 mph 68 % 0.00 in 0.0 W/m2 CLR
18:48 62.4 °F 51.3 °F 29.48 in WSW 7.5 mph 9.2 mph 67 % 0.00 in 0.0 W/m2 CLR
18:53 62.4 °F 51.3 °F 29.49 in West 5.0 mph 8.1 mph 67 % 0.00 in 0.0 W/m2 CLR
18:58 62.1 °F 51.4 °F 29.49 in WNW 6.0 mph 9.2 mph 68 % 0.00 in 0.0 W/m2 CLR
19:03 61.7 °F 51.4 °F 29.49 in West 5.0 mph 8.1 mph 69 % 0.00 in 0.0 W/m2 CLR
19:08 61.2 °F 51.3 °F 29.49 in West 3.7 mph 4.0 mph 70 % 0.00 in 0.0 W/m2 CLR
19:13 60.6 °F 51.5 °F 29.49 in West 5.5 mph 9.0 mph 72 % 0.00 in 0.0 W/m2 CLR
19:18 60.2 °F 51.9 °F 29.49 in West 3.1 mph 3.5 mph 74 % 0.00 in 0.0 W/m2 CLR
19:23 59.9 °F 52.0 °F 29.49 in WSW 3.3 mph 6.9 mph 75 % 0.00 in 0.0 W/m2 CLR
19:28 59.8 °F 51.9 °F 29.49 in WSW 4.0 mph 4.6 mph 75 % 0.00 in 0.0 W/m2 CLR
19:33 59.8 °F 51.9 °F 29.49 in SW 3.9 mph 6.9 mph 75 % 0.00 in 0.0 W/m2 CLR
19:38 60.0 °F 51.7 °F 29.49 in SW 2.4 mph 4.0 mph 74 % 0.00 in 0.0 W/m2 CLR
19:43 60.0 °F 51.7 °F 29.49 in SW 2.9 mph 4.0 mph 74 % 0.00 in 0.0 W/m2 CLR
19:48 59.8 °F 51.5 °F 29.49 in SW 4.0 mph 5.8 mph 74 % 0.00 in 0.0 W/m2 CLR
19:53 59.6 °F 51.3 °F 29.49 in SW 1.0 mph 3.5 mph 74 % 0.00 in 0.0 W/m2 CLR
19:58 59.3 °F 51.4 °F 29.49 in WSW 1.8 mph 3.5 mph 75 % 0.00 in 0.0 W/m2 CLR
20:03 59.2 °F 51.3 °F 29.48 in WSW 4.0 mph 6.9 mph 75 % 0.00 in 0.0 W/m2 CLR
20:08 59.1 °F 51.2 °F 29.48 in WSW 3.4 mph 3.5 mph 75 % 0.00 in 0.0 W/m2 CLR
20:13 58.9 °F 51.0 °F 29.48 in West 3.0 mph 6.0 mph 75 % 0.00 in 0.0 W/m2 CLR
20:18 58.7 °F 51.2 °F 29.48 in WSW 2.3 mph 3.5 mph 76 % 0.00 in 0.0 W/m2 CLR
20:23 58.5 °F 51.0 °F 29.48 in WSW 1.8 mph 2.3 mph 76 % 0.00 in 0.0 W/m2 CLR
20:28 58.2 °F 51.0 °F 29.48 in WSW 0.3 mph 2.0 mph 77 % 0.00 in 0.0 W/m2 CLR
20:33 58.0 °F 50.8 °F 29.47 in WSW 0.2 mph 2.0 mph 77 % 0.00 in 0.0 W/m2 CLR
20:38 57.7 °F 50.9 °F 29.47 in Calm     78 % 0.00 in 0.0 W/m2 CLR
20:43 57.6 °F 50.8 °F 29.47 in WSW 0.1 mph   78 % 0.00 in 0.0 W/m2 CLR
20:48 57.6 °F 50.8 °F 29.47 in Calm     78 % 0.00 in 0.0 W/m2 CLR
20:53 57.4 °F 50.9 °F 29.47 in WSW 0.8 mph 3.5 mph 79 % 0.00 in 0.0 W/m2 CLR
20:58 57.7 °F 50.9 °F 29.47 in Calm     78 % 0.00 in 0.0 W/m2 CLR
21:03 58.2 °F 51.0 °F 29.46 in SW 3.2 mph 6.9 mph 77 % 0.00 in 0.0 W/m2 CLR
21:08 58.9 °F 51.0 °F 29.47 in SW 6.6 mph 11.5 mph 75 % 0.00 in 0.0 W/m2 CLR
21:13 59.8 °F 50.8 °F 29.47 in WSW 3.2 mph 5.8 mph 72 % 0.00 in 0.0 W/m2 CLR
21:18 60.4 °F 51.0 °F 29.47 in SW 5.3 mph 8.1 mph 71 % 0.00 in 0.0 W/m2 CLR
21:23 60.7 °F 50.9 °F 29.47 in SW 2.5 mph 5.0 mph 70 % 0.00 in 0.0 W/m2 CLR
21:28 61.0 °F 50.8 °F 29.47 in WSW 4.2 mph 5.8 mph 69 % 0.00 in 0.0 W/m2 CLR
21:33 61.0 °F 50.4 °F 29.47 in SW 4.0 mph 5.0 mph 68 % 0.00 in 0.0 W/m2 CLR
21:38 60.9 °F 50.7 °F 29.47 in SW 2.7 mph 5.8 mph 69 % 0.00 in 0.0 W/m2 CLR
21:43 60.8 °F 50.6 °F 29.47 in SSW 4.2 mph 8.1 mph 69 % 0.00 in 0.0 W/m2 CLR
21:48 60.9 °F 50.7 °F 29.47 in SW 4.1 mph 6.9 mph 69 % 0.00 in 0.0 W/m2 CLR
21:53 60.9 °F 50.7 °F 29.47 in SW 4.0 mph 5.8 mph 69 % 0.00 in 0.0 W/m2 CLR
21:58 60.7 °F 50.5 °F 29.47 in SW 3.0 mph 5.8 mph 69 % 0.00 in 0.0 W/m2 CLR
22:03 60.7 °F 50.5 °F 29.47 in WSW 1.7 mph 5.8 mph 69 % 0.00 in 0.0 W/m2 CLR
22:08 60.7 °F 50.9 °F 29.47 in SSW 4.2 mph 10.4 mph 70 % 0.00 in 0.0 W/m2 CLR
22:13 60.8 °F 51.0 °F 29.47 in SW 3.7 mph 4.0 mph 70 % 0.00 in 0.0 W/m2 CLR
22:18 61.0 °F 50.8 °F 29.47 in SW 5.8 mph 12.7 mph 69 % 0.00 in 0.0 W/m2 CLR
22:23 61.3 °F 51.0 °F 29.46 in SSW 6.7 mph 12.7 mph 69 % 0.00 in 0.0 W/m2 CLR
22:28 61.5 °F 51.2 °F 29.46 in SW 3.9 mph 10.4 mph 69 % 0.00 in 0.0 W/m2 CLR
22:33 61.4 °F 51.1 °F 29.46 in SW 6.7 mph 9.2 mph 69 % 0.00 in 0.0 W/m2 CLR
22:38 61.4 °F 51.1 °F 29.47 in SW 7.3 mph 9.0 mph 69 % 0.00 in 0.0 W/m2 CLR
22:43 61.2 °F 50.9 °F 29.46 in WSW 5.6 mph 8.1 mph 69 % 0.00 in 0.0 W/m2 CLR
22:48 61.1 °F 51.2 °F 29.46 in SW 4.3 mph 9.2 mph 70 % 0.00 in 0.0 W/m2 CLR
22:53 61.0 °F 51.1 °F 29.45 in SW 4.1 mph 5.8 mph 70 % 0.00 in 0.0 W/m2 CLR
22:58 61.0 °F 51.1 °F 29.45 in WSW 4.3 mph 8.1 mph 70 % 0.00 in 0.0 W/m2 CLR
23:03 60.8 °F 51.3 °F 29.45 in WSW 5.9 mph 8.0 mph 71 % 0.00 in 0.0 W/m2 CLR
23:08 60.4 °F 51.0 °F 29.45 in West 6.4 mph 10.4 mph 71 % 0.00 in 0.0 W/m2 CLR
23:13 59.4 °F 50.4 °F 29.45 in West 6.5 mph 12.0 mph 72 % 0.00 in 0.0 W/m2 CLR
23:18 59.0 °F 50.4 °F 29.46 in WSW 8.7 mph 11.5 mph 73 % 0.00 in 0.0 W/m2 CLR
23:23 58.8 °F 50.5 °F 29.46 in WNW 6.8 mph 8.0 mph 74 % 0.00 in 0.0 W/m2 CLR
23:28 58.7 °F 50.4 °F 29.47 in WSW 9.6 mph 9.6 mph 74 % 0.00 in 0.0 W/m2 CLR
23:33 58.4 °F 50.1 °F 29.47 in West 5.2 mph 8.1 mph 74 % 0.00 in 0.0 W/m2 CLR
23:38 58.3 °F 50.4 °F 29.48 in WSW 9.1 mph 15.0 mph 75 % 0.00 in 0.0 W/m2 CLR
23:43 58.3 °F 50.4 °F 29.48 in SW 12.2 mph 23.0 mph 75 % 0.00 in 0.0 W/m2 CLR
23:48 58.3 °F 50.0 °F 29.48 in WSW 10.4 mph 19.6 mph 74 % 0.00 in 0.0 W/m2 CLR
23:53 58.1 °F 49.9 °F 29.49 in West 13.0 mph 18.4 mph 74 % 0.00 in 0.0 W/m2 CLR
23:58 58.0 °F 49.8 °F 29.48 in WSW 10.4 mph 15.0 mph 74 % 0.00 in 0.0 W/m2 CLR
Air Products Campus Weather
Compliments of Weather Underground - 3.5 mb